sensor_id;sensor_type;location;lat;lon;timestamp;P1;durP1;ratioP1;P2;durP2;ratioP2
16442;SDS011;8331;51.654;14.376;2023-07-13T00:00:38;2.47;;;2.17;;
16442;SDS011;8331;51.654;14.376;2023-07-13T00:03:05;2.33;;;2.20;;
16442;SDS011;8331;51.654;14.376;2023-07-13T00:05:32;2.70;;;2.00;;
16442;SDS011;8331;51.654;14.376;2023-07-13T00:07:58;2.77;;;2.07;;
16442;SDS011;8331;51.654;14.376;2023-07-13T00:10:25;2.10;;;2.00;;
16442;SDS011;8331;51.654;14.376;2023-07-13T00:12:53;2.50;;;2.17;;
16442;SDS011;8331;51.654;14.376;2023-07-13T00:15:24;2.53;;;1.87;;
16442;SDS011;8331;51.654;14.376;2023-07-13T00:17:52;2.60;;;2.20;;
16442;SDS011;8331;51.654;14.376;2023-07-13T00:20:20;2.73;;;1.83;;
16442;SDS011;8331;51.654;14.376;2023-07-13T00:22:48;2.23;;;2.03;;
16442;SDS011;8331;51.654;14.376;2023-07-13T00:25:15;1.90;;;1.80;;
16442;SDS011;8331;51.654;14.376;2023-07-13T00:27:43;2.10;;;2.00;;
16442;SDS011;8331;51.654;14.376;2023-07-13T00:30:11;2.20;;;2.10;;
16442;SDS011;8331;51.654;14.376;2023-07-13T00:32:37;3.27;;;2.70;;
16442;SDS011;8331;51.654;14.376;2023-07-13T00:35:05;2.50;;;2.10;;
16442;SDS011;8331;51.654;14.376;2023-07-13T00:37:31;2.60;;;2.40;;
16442;SDS011;8331;51.654;14.376;2023-07-13T00:39:58;3.40;;;2.43;;
16442;SDS011;8331;51.654;14.376;2023-07-13T00:42:25;2.23;;;2.03;;
16442;SDS011;8331;51.654;14.376;2023-07-13T00:47:47;2.13;;;2.03;;
16442;SDS011;8331;51.654;14.376;2023-07-13T00:50:14;2.10;;;2.00;;
16442;SDS011;8331;51.654;14.376;2023-07-13T00:52:43;2.37;;;2.27;;
16442;SDS011;8331;51.654;14.376;2023-07-13T00:55:11;4.23;;;2.60;;
16442;SDS011;8331;51.654;14.376;2023-07-13T00:57:38;3.87;;;2.00;;
16442;SDS011;8331;51.654;14.376;2023-07-13T01:00:07;2.50;;;2.40;;
16442;SDS011;8331;51.654;14.376;2023-07-13T01:02:35;2.23;;;2.03;;
16442;SDS011;8331;51.654;14.376;2023-07-13T01:05:10;2.20;;;2.10;;
16442;SDS011;8331;51.654;14.376;2023-07-13T01:07:37;2.87;;;2.17;;
16442;SDS011;8331;51.654;14.376;2023-07-13T01:10:04;2.50;;;2.40;;
16442;SDS011;8331;51.654;14.376;2023-07-13T01:12:31;2.30;;;2.20;;
16442;SDS011;8331;51.654;14.376;2023-07-13T01:14:58;18.73;;;3.70;;
16442;SDS011;8331;51.654;14.376;2023-07-13T01:17:29;2.63;;;2.43;;
16442;SDS011;8331;51.654;14.376;2023-07-13T01:19:56;5.60;;;2.20;;
16442;SDS011;8331;51.654;14.376;2023-07-13T01:22:22;3.40;;;2.30;;
16442;SDS011;8331;51.654;14.376;2023-07-13T01:24:52;3.20;;;2.50;;
16442;SDS011;8331;51.654;14.376;2023-07-13T01:27:23;2.40;;;2.30;;
16442;SDS011;8331;51.654;14.376;2023-07-13T01:29:52;3.37;;;2.17;;
16442;SDS011;8331;51.654;14.376;2023-07-13T01:32:20;2.33;;;2.23;;
16442;SDS011;8331;51.654;14.376;2023-07-13T01:34:52;2.47;;;2.37;;
16442;SDS011;8331;51.654;14.376;2023-07-13T01:37:21;2.37;;;2.27;;
16442;SDS011;8331;51.654;14.376;2023-07-13T01:39:50;2.77;;;2.67;;
16442;SDS011;8331;51.654;14.376;2023-07-13T01:42:17;2.50;;;2.30;;
16442;SDS011;8331;51.654;14.376;2023-07-13T01:44:43;2.67;;;2.40;;
16442;SDS011;8331;51.654;14.376;2023-07-13T01:47:10;2.87;;;2.30;;
16442;SDS011;8331;51.654;14.376;2023-07-13T01:49:38;2.50;;;2.30;;
16442;SDS011;8331;51.654;14.376;2023-07-13T01:52:05;2.40;;;2.30;;
16442;SDS011;8331;51.654;14.376;2023-07-13T01:54:31;2.93;;;2.17;;
16442;SDS011;8331;51.654;14.376;2023-07-13T01:57:00;3.37;;;2.30;;
16442;SDS011;8331;51.654;14.376;2023-07-13T01:59:27;2.40;;;2.17;;
16442;SDS011;8331;51.654;14.376;2023-07-13T02:01:53;2.40;;;2.30;;
16442;SDS011;8331;51.654;14.376;2023-07-13T02:04:20;2.17;;;2.07;;
16442;SDS011;8331;51.654;14.376;2023-07-13T02:06:48;2.60;;;2.40;;
16442;SDS011;8331;51.654;14.376;2023-07-13T02:09:15;2.57;;;2.43;;
16442;SDS011;8331;51.654;14.376;2023-07-13T02:11:41;2.27;;;2.07;;
16442;SDS011;8331;51.654;14.376;2023-07-13T02:14:08;2.60;;;2.40;;
16442;SDS011;8331;51.654;14.376;2023-07-13T02:16:34;2.10;;;2.00;;
16442;SDS011;8331;51.654;14.376;2023-07-13T02:19:01;3.23;;;2.10;;
16442;SDS011;8331;51.654;14.376;2023-07-13T02:21:28;2.67;;;2.20;;
16442;SDS011;8331;51.654;14.376;2023-07-13T02:23:55;2.50;;;2.40;;
16442;SDS011;8331;51.654;14.376;2023-07-13T02:26:24;2.40;;;2.30;;
16442;SDS011;8331;51.654;14.376;2023-07-13T02:28:50;2.00;;;1.90;;
16442;SDS011;8331;51.654;14.376;2023-07-13T02:31:18;2.83;;;2.30;;
16442;SDS011;8331;51.654;14.376;2023-07-13T02:33:45;2.67;;;2.20;;
16442;SDS011;8331;51.654;14.376;2023-07-13T02:36:12;2.53;;;2.23;;
16442;SDS011;8331;51.654;14.376;2023-07-13T02:38:40;2.53;;;2.30;;
16442;SDS011;8331;51.654;14.376;2023-07-13T02:41:07;2.30;;;2.10;;
16442;SDS011;8331;51.654;14.376;2023-07-13T02:43:35;2.97;;;2.40;;
16442;SDS011;8331;51.654;14.376;2023-07-13T02:46:02;2.43;;;2.20;;
16442;SDS011;8331;51.654;14.376;2023-07-13T02:48:35;2.70;;;2.50;;
16442;SDS011;8331;51.654;14.376;2023-07-13T02:51:02;2.87;;;2.67;;
16442;SDS011;8331;51.654;14.376;2023-07-13T02:53:28;2.50;;;2.30;;
16442;SDS011;8331;51.654;14.376;2023-07-13T02:55:55;3.13;;;2.80;;
16442;SDS011;8331;51.654;14.376;2023-07-13T02:58:22;2.70;;;2.40;;
16442;SDS011;8331;51.654;14.376;2023-07-13T03:00:49;2.90;;;2.70;;
16442;SDS011;8331;51.654;14.376;2023-07-13T03:03:16;3.03;;;2.83;;
16442;SDS011;8331;51.654;14.376;2023-07-13T03:05:44;3.30;;;2.80;;
16442;SDS011;8331;51.654;14.376;2023-07-13T03:08:12;2.90;;;2.73;;
16442;SDS011;8331;51.654;14.376;2023-07-13T03:10:41;3.07;;;2.83;;
16442;SDS011;8331;51.654;14.376;2023-07-13T03:13:10;2.80;;;2.60;;
16442;SDS011;8331;51.654;14.376;2023-07-13T03:15:37;2.60;;;2.33;;
16442;SDS011;8331;51.654;14.376;2023-07-13T03:18:04;3.70;;;2.40;;
16442;SDS011;8331;51.654;14.376;2023-07-13T03:20:34;2.73;;;2.43;;
16442;SDS011;8331;51.654;14.376;2023-07-13T03:23:01;2.80;;;2.53;;
16442;SDS011;8331;51.654;14.376;2023-07-13T03:25:30;2.90;;;2.70;;
16442;SDS011;8331;51.654;14.376;2023-07-13T03:27:59;2.80;;;2.60;;
16442;SDS011;8331;51.654;14.376;2023-07-13T03:30:26;3.10;;;2.90;;
16442;SDS011;8331;51.654;14.376;2023-07-13T03:32:53;2.90;;;2.40;;
16442;SDS011;8331;51.654;14.376;2023-07-13T03:35:20;2.83;;;2.63;;
16442;SDS011;8331;51.654;14.376;2023-07-13T03:37:47;3.03;;;2.80;;
16442;SDS011;8331;51.654;14.376;2023-07-13T03:40:18;2.77;;;2.67;;
16442;SDS011;8331;51.654;14.376;2023-07-13T03:42:45;3.30;;;2.80;;
16442;SDS011;8331;51.654;14.376;2023-07-13T03:45:15;2.73;;;2.53;;
16442;SDS011;8331;51.654;14.376;2023-07-13T03:47:42;4.53;;;3.10;;
16442;SDS011;8331;51.654;14.376;2023-07-13T03:50:08;3.10;;;2.80;;
16442;SDS011;8331;51.654;14.376;2023-07-13T03:52:35;3.17;;;2.90;;
16442;SDS011;8331;51.654;14.376;2023-07-13T03:55:02;2.93;;;2.73;;
16442;SDS011;8331;51.654;14.376;2023-07-13T03:57:29;2.80;;;2.57;;
16442;SDS011;8331;51.654;14.376;2023-07-13T03:59:57;3.20;;;2.87;;
16442;SDS011;8331;51.654;14.376;2023-07-13T04:02:23;5.77;;;2.50;;
16442;SDS011;8331;51.654;14.376;2023-07-13T04:04:50;2.83;;;2.63;;
16442;SDS011;8331;51.654;14.376;2023-07-13T04:07:17;3.00;;;2.80;;
16442;SDS011;8331;51.654;14.376;2023-07-13T04:09:44;3.27;;;3.03;;
16442;SDS011;8331;51.654;14.376;2023-07-13T04:12:11;2.80;;;2.60;;
16442;SDS011;8331;51.654;14.376;2023-07-13T04:14:37;3.00;;;2.80;;
16442;SDS011;8331;51.654;14.376;2023-07-13T04:17:04;2.83;;;2.63;;
16442;SDS011;8331;51.654;14.376;2023-07-13T04:19:31;3.07;;;2.83;;
16442;SDS011;8331;51.654;14.376;2023-07-13T04:21:57;3.87;;;2.50;;
16442;SDS011;8331;51.654;14.376;2023-07-13T04:24:24;3.87;;;3.10;;
16442;SDS011;8331;51.654;14.376;2023-07-13T04:26:51;3.00;;;2.80;;
16442;SDS011;8331;51.654;14.376;2023-07-13T04:29:17;3.10;;;2.90;;
16442;SDS011;8331;51.654;14.376;2023-07-13T04:31:44;3.00;;;2.80;;
16442;SDS011;8331;51.654;14.376;2023-07-13T04:34:10;3.30;;;3.10;;
16442;SDS011;8331;51.654;14.376;2023-07-13T04:36:37;3.03;;;2.60;;
16442;SDS011;8331;51.654;14.376;2023-07-13T04:39:04;3.00;;;2.53;;
16442;SDS011;8331;51.654;14.376;2023-07-13T04:41:30;2.73;;;2.53;;
16442;SDS011;8331;51.654;14.376;2023-07-13T04:43:57;2.83;;;2.73;;
16442;SDS011;8331;51.654;14.376;2023-07-13T04:46:24;3.03;;;2.83;;
16442;SDS011;8331;51.654;14.376;2023-07-13T04:48:51;4.00;;;3.13;;
16442;SDS011;8331;51.654;14.376;2023-07-13T04:51:20;4.50;;;2.97;;
16442;SDS011;8331;51.654;14.376;2023-07-13T04:53:47;4.13;;;3.00;;
16442;SDS011;8331;51.654;14.376;2023-07-13T04:56:13;5.07;;;2.97;;
16442;SDS011;8331;51.654;14.376;2023-07-13T04:58:40;3.33;;;3.03;;
16442;SDS011;8331;51.654;14.376;2023-07-13T05:01:06;3.30;;;3.10;;
16442;SDS011;8331;51.654;14.376;2023-07-13T05:03:35;2.90;;;2.70;;
16442;SDS011;8331;51.654;14.376;2023-07-13T05:06:03;2.80;;;2.67;;
16442;SDS011;8331;51.654;14.376;2023-07-13T05:08:30;4.03;;;2.60;;
16442;SDS011;8331;51.654;14.376;2023-07-13T05:10:58;3.03;;;2.83;;
16442;SDS011;8331;51.654;14.376;2023-07-13T05:13:25;3.10;;;2.83;;
16442;SDS011;8331;51.654;14.376;2023-07-13T05:15:59;3.43;;;3.13;;
16442;SDS011;8331;51.654;14.376;2023-07-13T05:18:26;3.37;;;3.07;;
16442;SDS011;8331;51.654;14.376;2023-07-13T05:21:00;3.20;;;2.90;;
16442;SDS011;8331;51.654;14.376;2023-07-13T05:23:27;3.10;;;2.90;;
16442;SDS011;8331;51.654;14.376;2023-07-13T05:25:54;3.70;;;3.40;;
16442;SDS011;8331;51.654;14.376;2023-07-13T05:28:21;3.47;;;2.97;;
16442;SDS011;8331;51.654;14.376;2023-07-13T05:30:48;3.13;;;2.93;;
16442;SDS011;8331;51.654;14.376;2023-07-13T05:33:15;2.97;;;2.77;;
16442;SDS011;8331;51.654;14.376;2023-07-13T05:35:42;3.33;;;2.70;;
16442;SDS011;8331;51.654;14.376;2023-07-13T05:38:08;6.57;;;3.20;;
16442;SDS011;8331;51.654;14.376;2023-07-13T05:40:35;4.60;;;3.27;;
16442;SDS011;8331;51.654;14.376;2023-07-13T05:43:02;3.97;;;2.93;;
16442;SDS011;8331;51.654;14.376;2023-07-13T05:45:29;3.40;;;3.17;;
16442;SDS011;8331;51.654;14.376;2023-07-13T05:47:55;3.40;;;3.10;;
16442;SDS011;8331;51.654;14.376;2023-07-13T05:50:22;3.03;;;2.83;;
16442;SDS011;8331;51.654;14.376;2023-07-13T05:52:49;3.37;;;2.77;;
16442;SDS011;8331;51.654;14.376;2023-07-13T05:55:15;3.47;;;2.80;;
16442;SDS011;8331;51.654;14.376;2023-07-13T05:57:42;3.27;;;2.97;;
16442;SDS011;8331;51.654;14.376;2023-07-13T06:00:09;3.00;;;2.80;;
16442;SDS011;8331;51.654;14.376;2023-07-13T06:02:38;3.27;;;2.97;;
16442;SDS011;8331;51.654;14.376;2023-07-13T06:05:05;3.37;;;2.50;;
16442;SDS011;8331;51.654;14.376;2023-07-13T06:07:32;3.50;;;3.00;;
16442;SDS011;8331;51.654;14.376;2023-07-13T06:09:58;8.20;;;2.80;;
16442;SDS011;8331;51.654;14.376;2023-07-13T06:12:26;4.20;;;3.00;;
16442;SDS011;8331;51.654;14.376;2023-07-13T06:14:52;4.50;;;3.07;;
16442;SDS011;8331;51.654;14.376;2023-07-13T06:17:19;4.33;;;3.17;;
16442;SDS011;8331;51.654;14.376;2023-07-13T06:19:45;5.07;;;3.10;;
16442;SDS011;8331;51.654;14.376;2023-07-13T06:22:12;3.40;;;2.97;;
16442;SDS011;8331;51.654;14.376;2023-07-13T06:24:39;3.47;;;2.53;;
16442;SDS011;8331;51.654;14.376;2023-07-13T06:27:06;3.70;;;2.83;;
16442;SDS011;8331;51.654;14.376;2023-07-13T06:29:32;3.20;;;3.00;;
16442;SDS011;8331;51.654;14.376;2023-07-13T06:31:59;3.30;;;3.00;;
16442;SDS011;8331;51.654;14.376;2023-07-13T06:34:25;2.80;;;2.60;;
16442;SDS011;8331;51.654;14.376;2023-07-13T06:36:52;5.07;;;3.00;;
16442;SDS011;8331;51.654;14.376;2023-07-13T06:39:19;2.80;;;2.60;;
16442;SDS011;8331;51.654;14.376;2023-07-13T06:41:45;3.63;;;2.60;;
16442;SDS011;8331;51.654;14.376;2023-07-13T06:44:13;3.53;;;2.80;;
16442;SDS011;8331;51.654;14.376;2023-07-13T06:46:39;3.23;;;3.03;;
16442;SDS011;8331;51.654;14.376;2023-07-13T06:49:07;2.93;;;2.73;;
16442;SDS011;8331;51.654;14.376;2023-07-13T06:51:34;3.43;;;2.53;;
16442;SDS011;8331;51.654;14.376;2023-07-13T06:54:01;2.60;;;2.40;;
16442;SDS011;8331;51.654;14.376;2023-07-13T06:56:27;2.77;;;2.40;;
16442;SDS011;8331;51.654;14.376;2023-07-13T06:58:54;3.00;;;2.50;;
16442;SDS011;8331;51.654;14.376;2023-07-13T07:01:21;3.10;;;2.33;;
16442;SDS011;8331;51.654;14.376;2023-07-13T07:03:48;3.03;;;2.20;;
16442;SDS011;8331;51.654;14.376;2023-07-13T07:06:18;2.27;;;2.07;;
16442;SDS011;8331;51.654;14.376;2023-07-13T07:08:46;2.20;;;2.00;;
16442;SDS011;8331;51.654;14.376;2023-07-13T07:11:13;7.10;;;1.90;;
16442;SDS011;8331;51.654;14.376;2023-07-13T07:13:40;3.37;;;1.80;;
16442;SDS011;8331;51.654;14.376;2023-07-13T07:16:07;2.07;;;1.73;;
16442;SDS011;8331;51.654;14.376;2023-07-13T07:18:35;2.10;;;1.90;;
16442;SDS011;8331;51.654;14.376;2023-07-13T07:21:02;2.33;;;1.90;;
16442;SDS011;8331;51.654;14.376;2023-07-13T07:23:28;2.47;;;1.87;;
16442;SDS011;8331;51.654;14.376;2023-07-13T07:25:55;3.10;;;1.87;;
16442;SDS011;8331;51.654;14.376;2023-07-13T07:28:22;4.10;;;2.13;;
16442;SDS011;8331;51.654;14.376;2023-07-13T07:30:55;3.73;;;1.80;;
16442;SDS011;8331;51.654;14.376;2023-07-13T07:33:24;4.50;;;1.73;;
16442;SDS011;8331;51.654;14.376;2023-07-13T07:35:51;3.17;;;2.10;;
16442;SDS011;8331;51.654;14.376;2023-07-13T07:38:21;3.17;;;1.90;;
16442;SDS011;8331;51.654;14.376;2023-07-13T07:40:50;2.70;;;1.87;;
16442;SDS011;8331;51.654;14.376;2023-07-13T07:43:19;3.10;;;2.00;;
16442;SDS011;8331;51.654;14.376;2023-07-13T07:45:46;3.03;;;2.00;;
16442;SDS011;8331;51.654;14.376;2023-07-13T07:48:13;2.43;;;1.80;;
16442;SDS011;8331;51.654;14.376;2023-07-13T07:50:39;2.00;;;1.80;;
16442;SDS011;8331;51.654;14.376;2023-07-13T07:53:06;3.80;;;2.10;;
16442;SDS011;8331;51.654;14.376;2023-07-13T07:55:34;4.03;;;1.70;;
16442;SDS011;8331;51.654;14.376;2023-07-13T07:58:06;3.20;;;2.10;;
16442;SDS011;8331;51.654;14.376;2023-07-13T08:00:53;4.33;;;1.90;;
16442;SDS011;8331;51.654;14.376;2023-07-13T08:03:23;3.40;;;1.87;;
16442;SDS011;8331;51.654;14.376;2023-07-13T08:05:53;4.90;;;2.13;;
16442;SDS011;8331;51.654;14.376;2023-07-13T08:08:23;4.68;;;2.10;;
16442;SDS011;8331;51.654;14.376;2023-07-13T08:10:50;2.67;;;1.97;;
16442;SDS011;8331;51.654;14.376;2023-07-13T08:13:16;4.93;;;1.80;;
16442;SDS011;8331;51.654;14.376;2023-07-13T08:15:44;2.47;;;1.70;;
16442;SDS011;8331;51.654;14.376;2023-07-13T08:18:10;2.97;;;1.80;;
16442;SDS011;8331;51.654;14.376;2023-07-13T08:20:38;3.70;;;1.70;;
16442;SDS011;8331;51.654;14.376;2023-07-13T08:23:05;1.90;;;1.67;;
16442;SDS011;8331;51.654;14.376;2023-07-13T08:25:31;6.20;;;1.80;;
16442;SDS011;8331;51.654;14.376;2023-07-13T08:27:58;3.17;;;2.00;;
16442;SDS011;8331;51.654;14.376;2023-07-13T08:30:25;2.43;;;1.67;;
16442;SDS011;8331;51.654;14.376;2023-07-13T08:32:52;2.10;;;1.90;;
16442;SDS011;8331;51.654;14.376;2023-07-13T08:35:19;2.40;;;1.77;;
16442;SDS011;8331;51.654;14.376;2023-07-13T08:37:46;4.83;;;2.00;;
16442;SDS011;8331;51.654;14.376;2023-07-13T08:40:13;2.57;;;1.97;;
16442;SDS011;8331;51.654;14.376;2023-07-13T08:42:42;1.90;;;1.80;;
16442;SDS011;8331;51.654;14.376;2023-07-13T08:47:42;5.63;;;2.40;;
16442;SDS011;8331;51.654;14.376;2023-07-13T08:50:11;2.30;;;1.70;;
16442;SDS011;8331;51.654;14.376;2023-07-13T08:52:39;2.93;;;1.83;;
16442;SDS011;8331;51.654;14.376;2023-07-13T08:55:20;4.23;;;1.90;;
16442;SDS011;8331;51.654;14.376;2023-07-13T08:57:53;3.23;;;2.03;;
16442;SDS011;8331;51.654;14.376;2023-07-13T09:00:22;4.57;;;1.80;;
16442;SDS011;8331;51.654;14.376;2023-07-13T09:02:56;4.17;;;1.90;;
16442;SDS011;8331;51.654;14.376;2023-07-13T09:05:30;3.47;;;2.10;;
16442;SDS011;8331;51.654;14.376;2023-07-13T09:10:26;2.10;;;1.90;;
16442;SDS011;8331;51.654;14.376;2023-07-13T09:13:13;4.43;;;2.20;;
16442;SDS011;8331;51.654;14.376;2023-07-13T09:15:43;1.87;;;1.73;;
16442;SDS011;8331;51.654;14.376;2023-07-13T09:18:13;4.97;;;2.10;;
16442;SDS011;8331;51.654;14.376;2023-07-13T09:20:46;4.93;;;1.70;;
16442;SDS011;8331;51.654;14.376;2023-07-13T09:23:15;4.30;;;1.97;;
16442;SDS011;8331;51.654;14.376;2023-07-13T09:25:44;3.93;;;2.00;;
16442;SDS011;8331;51.654;14.376;2023-07-13T09:28:19;2.73;;;1.83;;
16442;SDS011;8331;51.654;14.376;2023-07-13T09:31:01;12.57;;;2.23;;
16442;SDS011;8331;51.654;14.376;2023-07-13T09:33:30;2.23;;;2.00;;
16442;SDS011;8331;51.654;14.376;2023-07-13T09:35:58;2.93;;;2.00;;
16442;SDS011;8331;51.654;14.376;2023-07-13T09:38:27;2.20;;;1.87;;
16442;SDS011;8331;51.654;14.376;2023-07-13T09:43:25;2.70;;;1.77;;
16442;SDS011;8331;51.654;14.376;2023-07-13T09:45:52;3.10;;;1.80;;
16442;SDS011;8331;51.654;14.376;2023-07-13T09:48:19;2.03;;;1.83;;
16442;SDS011;8331;51.654;14.376;2023-07-13T09:50:46;2.47;;;1.77;;
16442;SDS011;8331;51.654;14.376;2023-07-13T09:53:16;1.73;;;1.60;;
16442;SDS011;8331;51.654;14.376;2023-07-13T09:55:44;2.23;;;1.73;;
16442;SDS011;8331;51.654;14.376;2023-07-13T09:58:18;2.13;;;1.87;;
16442;SDS011;8331;51.654;14.376;2023-07-13T10:01:02;2.40;;;1.60;;
16442;SDS011;8331;51.654;14.376;2023-07-13T10:03:32;1.90;;;1.60;;
16442;SDS011;8331;51.654;14.376;2023-07-13T10:06:17;2.03;;;1.63;;
16442;SDS011;8331;51.654;14.376;2023-07-13T10:08:45;1.80;;;1.50;;
16442;SDS011;8331;51.654;14.376;2023-07-13T10:11:20;1.73;;;1.63;;
16442;SDS011;8331;51.654;14.376;2023-07-13T10:13:52;2.10;;;1.90;;
16442;SDS011;8331;51.654;14.376;2023-07-13T10:16:22;1.83;;;1.70;;
16442;SDS011;8331;51.654;14.376;2023-07-13T10:18:51;4.90;;;2.03;;
16442;SDS011;8331;51.654;14.376;2023-07-13T10:21:20;1.73;;;1.60;;
16442;SDS011;8331;51.654;14.376;2023-07-13T10:24:19;3.40;;;1.87;;
16442;SDS011;8331;51.654;14.376;2023-07-13T10:27:32;1.93;;;1.70;;
16442;SDS011;8331;51.654;14.376;2023-07-13T10:29:38;2.57;;;1.90;;
16442;SDS011;8331;51.654;14.376;2023-07-13T10:32:11;1.97;;;1.70;;
16442;SDS011;8331;51.654;14.376;2023-07-13T10:34:39;2.17;;;1.93;;
16442;SDS011;8331;51.654;14.376;2023-07-13T10:37:07;2.97;;;1.87;;
16442;SDS011;8331;51.654;14.376;2023-07-13T10:39:42;3.80;;;1.80;;
16442;SDS011;8331;51.654;14.376;2023-07-13T10:42:10;2.67;;;1.60;;
16442;SDS011;8331;51.654;14.376;2023-07-13T10:44:41;2.17;;;1.97;;
16442;SDS011;8331;51.654;14.376;2023-07-13T10:47:08;2.20;;;1.50;;
16442;SDS011;8331;51.654;14.376;2023-07-13T10:49:39;2.20;;;1.70;;
16442;SDS011;8331;51.654;14.376;2023-07-13T10:54:52;2.60;;;1.83;;
16442;SDS011;8331;51.654;14.376;2023-07-13T10:57:20;3.03;;;1.70;;
16442;SDS011;8331;51.654;14.376;2023-07-13T10:59:48;2.47;;;1.73;;
16442;SDS011;8331;51.654;14.376;2023-07-13T11:02:26;1.90;;;1.70;;
16442;SDS011;8331;51.654;14.376;2023-07-13T11:04:55;3.10;;;1.73;;
16442;SDS011;8331;51.654;14.376;2023-07-13T11:07:29;2.97;;;1.87;;
16442;SDS011;8331;51.654;14.376;2023-07-13T11:09:57;1.80;;;1.70;;
16442;SDS011;8331;51.654;14.376;2023-07-13T11:27:49;1.73;;;1.60;;
16442;SDS011;8331;51.654;14.376;2023-07-13T11:32:46;1.97;;;1.77;;
16442;SDS011;8331;51.654;14.376;2023-07-13T11:35:17;5.13;;;1.90;;
16442;SDS011;8331;51.654;14.376;2023-07-13T11:37:46;5.03;;;1.90;;
16442;SDS011;8331;51.654;14.376;2023-07-13T11:40:13;3.77;;;1.50;;
16442;SDS011;8331;51.654;14.376;2023-07-13T11:42:41;8.10;;;1.80;;
16442;SDS011;8331;51.654;14.376;2023-07-13T11:45:41;3.47;;;1.60;;
16442;SDS011;8331;51.654;14.376;2023-07-13T11:48:20;2.60;;;1.77;;
16442;SDS011;8331;51.654;14.376;2023-07-13T11:50:51;2.33;;;1.97;;
16442;SDS011;8331;51.654;14.376;2023-07-13T11:53:19;2.10;;;1.90;;
16442;SDS011;8331;51.654;14.376;2023-07-13T11:55:46;2.13;;;1.70;;
16442;SDS011;8331;51.654;14.376;2023-07-13T11:58:14;2.43;;;1.80;;
16442;SDS011;8331;51.654;14.376;2023-07-13T12:00:43;4.97;;;1.87;;
16442;SDS011;8331;51.654;14.376;2023-07-13T12:03:10;2.27;;;1.80;;
16442;SDS011;8331;51.654;14.376;2023-07-13T12:05:37;3.20;;;1.83;;
16442;SDS011;8331;51.654;14.376;2023-07-13T12:08:21;2.23;;;1.70;;
16442;SDS011;8331;51.654;14.376;2023-07-13T12:10:56;1.70;;;1.60;;
16442;SDS011;8331;51.654;14.376;2023-07-13T12:13:22;2.20;;;1.67;;
16442;SDS011;8331;51.654;14.376;2023-07-13T12:15:49;2.50;;;1.53;;
16442;SDS011;8331;51.654;14.376;2023-07-13T12:18:19;3.80;;;1.50;;
16442;SDS011;8331;51.654;14.376;2023-07-13T12:20:46;2.63;;;1.60;;
16442;SDS011;8331;51.654;14.376;2023-07-13T12:25:43;1.90;;;1.67;;
16442;SDS011;8331;51.654;14.376;2023-07-13T12:31:07;2.17;;;1.57;;
16442;SDS011;8331;51.654;14.376;2023-07-13T12:33:45;1.67;;;1.57;;
16442;SDS011;8331;51.654;14.376;2023-07-13T12:36:12;18.97;;;2.30;;
16442;SDS011;8331;51.654;14.376;2023-07-13T12:38:39;3.73;;;1.77;;
16442;SDS011;8331;51.654;14.376;2023-07-13T12:41:07;2.17;;;1.57;;
16442;SDS011;8331;51.654;14.376;2023-07-13T12:43:36;4.80;;;1.70;;
16442;SDS011;8331;51.654;14.376;2023-07-13T12:46:04;2.10;;;1.57;;
16442;SDS011;8331;51.654;14.376;2023-07-13T12:48:42;2.40;;;1.60;;
16442;SDS011;8331;51.654;14.376;2023-07-13T12:51:21;3.50;;;1.70;;
16442;SDS011;8331;51.654;14.376;2023-07-13T12:53:49;4.00;;;1.50;;
16442;SDS011;8331;51.654;14.376;2023-07-13T12:56:21;3.37;;;1.60;;
16442;SDS011;8331;51.654;14.376;2023-07-13T12:58:49;2.83;;;1.90;;
16442;SDS011;8331;51.654;14.376;2023-07-13T13:01:21;2.97;;;1.70;;
16442;SDS011;8331;51.654;14.376;2023-07-13T13:03:50;2.13;;;1.63;;
16442;SDS011;8331;51.654;14.376;2023-07-13T13:06:26;3.27;;;1.50;;
16442;SDS011;8331;51.654;14.376;2023-07-13T13:08:56;3.63;;;1.40;;
16442;SDS011;8331;51.654;14.376;2023-07-13T13:11:25;2.63;;;1.50;;
16442;SDS011;8331;51.654;14.376;2023-07-13T13:13:52;1.85;;;1.48;;
16442;SDS011;8331;51.654;14.376;2023-07-13T13:16:23;2.10;;;1.85;;
16442;SDS011;8331;51.654;14.376;2023-07-13T13:18:51;1.83;;;1.58;;
16442;SDS011;8331;51.654;14.376;2023-07-13T13:21:18;2.05;;;1.63;;
16442;SDS011;8331;51.654;14.376;2023-07-13T13:23:45;1.83;;;1.55;;
16442;SDS011;8331;51.654;14.376;2023-07-13T13:26:13;5.57;;;1.70;;
16442;SDS011;8331;51.654;14.376;2023-07-13T13:28:44;3.45;;;1.80;;
16442;SDS011;8331;51.654;14.376;2023-07-13T13:31:11;1.63;;;1.27;;
16442;SDS011;8331;51.654;14.376;2023-07-13T13:33:42;1.75;;;1.45;;
16442;SDS011;8331;51.654;14.376;2023-07-13T13:36:18;3.25;;;1.63;;
16442;SDS011;8331;51.654;14.376;2023-07-13T13:38:45;1.70;;;1.52;;
16442;SDS011;8331;51.654;14.376;2023-07-13T13:41:12;3.03;;;1.55;;
16442;SDS011;8331;51.654;14.376;2023-07-13T13:43:40;1.50;;;1.40;;
16442;SDS011;8331;51.654;14.376;2023-07-13T13:48:40;2.88;;;1.60;;
16442;SDS011;8331;51.654;14.376;2023-07-13T13:51:13;2.65;;;1.27;;
16442;SDS011;8331;51.654;14.376;2023-07-13T13:53:40;1.83;;;1.40;;
16442;SDS011;8331;51.654;14.376;2023-07-13T13:56:07;3.75;;;1.60;;
16442;SDS011;8331;51.654;14.376;2023-07-13T13:58:33;2.65;;;1.85;;
16442;SDS011;8331;51.654;14.376;2023-07-13T14:01:00;8.05;;;1.70;;
16442;SDS011;8331;51.654;14.376;2023-07-13T14:03:27;2.70;;;1.70;;
16442;SDS011;8331;51.654;14.376;2023-07-13T14:05:54;2.78;;;1.60;;
16442;SDS011;8331;51.654;14.376;2023-07-13T14:08:22;2.30;;;1.50;;
16442;SDS011;8331;51.654;14.376;2023-07-13T14:10:51;1.92;;;1.38;;
16442;SDS011;8331;51.654;14.376;2023-07-13T14:13:21;2.53;;;1.35;;
16442;SDS011;8331;51.654;14.376;2023-07-13T14:15:48;1.67;;;1.55;;
16442;SDS011;8331;51.654;14.376;2023-07-13T14:18:14;2.63;;;1.80;;
16442;SDS011;8331;51.654;14.376;2023-07-13T14:20:45;1.92;;;1.50;;
16442;SDS011;8331;51.654;14.376;2023-07-13T14:23:15;2.15;;;1.63;;
16442;SDS011;8331;51.654;14.376;2023-07-13T14:25:42;1.85;;;1.60;;
16442;SDS011;8331;51.654;14.376;2023-07-13T14:28:25;2.15;;;1.65;;
16442;SDS011;8331;51.654;14.376;2023-07-13T14:30:52;4.53;;;1.67;;
16442;SDS011;8331;51.654;14.376;2023-07-13T14:33:19;3.00;;;1.55;;
16442;SDS011;8331;51.654;14.376;2023-07-13T14:35:45;1.60;;;1.50;;
16442;SDS011;8331;51.654;14.376;2023-07-13T14:38:15;1.70;;;1.10;;
16442;SDS011;8331;51.654;14.376;2023-07-13T14:40:43;2.17;;;1.20;;
16442;SDS011;8331;51.654;14.376;2023-07-13T14:43:11;3.60;;;1.40;;
16442;SDS011;8331;51.654;14.376;2023-07-13T14:45:40;1.67;;;1.50;;
16442;SDS011;8331;51.654;14.376;2023-07-13T14:48:12;2.25;;;1.20;;
16442;SDS011;8331;51.654;14.376;2023-07-13T14:50:39;2.92;;;1.27;;
16442;SDS011;8331;51.654;14.376;2023-07-13T14:53:11;1.30;;;1.20;;
16442;SDS011;8331;51.654;14.376;2023-07-13T14:55:38;1.30;;;1.20;;
16442;SDS011;8331;51.654;14.376;2023-07-13T14:58:05;1.55;;;1.17;;
16442;SDS011;8331;51.654;14.376;2023-07-13T15:00:32;1.48;;;1.33;;
16442;SDS011;8331;51.654;14.376;2023-07-13T15:02:59;2.35;;;1.15;;
16442;SDS011;8331;51.654;14.376;2023-07-13T15:05:29;2.30;;;1.45;;
16442;SDS011;8331;51.654;14.376;2023-07-13T15:07:57;1.35;;;1.25;;
16442;SDS011;8331;51.654;14.376;2023-07-13T15:10:29;1.73;;;1.60;;
16442;SDS011;8331;51.654;14.376;2023-07-13T15:13:00;1.92;;;1.10;;
16442;SDS011;8331;51.654;14.376;2023-07-13T15:15:30;2.42;;;1.20;;
16442;SDS011;8331;51.654;14.376;2023-07-13T15:17:58;2.47;;;1.20;;
16442;SDS011;8331;51.654;14.376;2023-07-13T15:22:54;4.18;;;1.67;;
16442;SDS011;8331;51.654;14.376;2023-07-13T15:25:22;5.10;;;1.48;;
16442;SDS011;8331;51.654;14.376;2023-07-13T15:27:51;2.25;;;1.10;;
16442;SDS011;8331;51.654;14.376;2023-07-13T15:30:17;3.33;;;1.42;;
16442;SDS011;8331;51.654;14.376;2023-07-13T15:32:44;2.50;;;1.33;;
16442;SDS011;8331;51.654;14.376;2023-07-13T15:35:15;1.83;;;1.33;;
16442;SDS011;8331;51.654;14.376;2023-07-13T15:37:42;3.80;;;1.42;;